Silerton, Tennessee
Current Conditions -  °F | °C
As of 1:53 PM on Wednesday 26 Nov 2014 (Local Time) from KMKL Reporting Station
Overcast Overcast  
Wind Chill: 45°   Ceiling: 8500
Heat Index: 48°   Visibility: 10mi
Dew Point: 26°   Wind: 7mph
Humidity: 42%   Direction: 160°SSE
Pressure: 29.98"   Gusts: NA
Location:  35.34°N, 88.81°W
Report Text: KMKL 261953Z 16006KT 10SM SCT070 OVC085 09/M03 A2998 RMK AO2 SLP154 T00891033
Loading
Personal Weather Stations






























Interactive Weather Map New forecast layout! Learn more

10-Day Weather Forecast

Advertisements
Track Severe Weather on mobile